MiSS Stacie — WDF5915 — position and weather

sailwx.info

Track history (hours):
 
Tides and Currents Weather Stations Pressure Air Temp Water Temp Dewpoint Dewpoint Depression Visibility Wind Speed Wind Dir Waves Ship Positions

MiSS Stacie

Owner: Crosby Marine Transportation LLC, Golden Meadow, LA. More information available from US FCC via Universal Licensing System and Coast Guard Vessel Documentation Center.

Last reported at 2017-Feb-24 19:33 UTC. Time now 2017-Feb-24 19:33 UTC.
Position N 29°33' W 090°42'.

Length 20 m; draft 2 m.

Type: Tug. MMSI: 367468640.

Date/timePositionNaut miles runAvg speedWind from/ knotsBaromVisibWave heightAir tempDewpointWater temp
2017-Feb-24 19:33N 29°33' W 090°42'0 0.2
2017-Feb-24 18:33N 29°33' W 090°42'0 0.1
2017-Feb-24 17:33N 29°33' W 090°42'0 0.0
2017-Feb-24 16:33N 29°33' W 090°42'1 1.1
2017-Feb-24 15:33N 29°34' W 090°42'1 1.1
2017-Feb-24 14:33N 29°33' W 090°42'0 0.3
2017-Feb-24 13:33N 29°33' W 090°42'0 0.0
2017-Feb-24 12:33N 29°33' W 090°42'0 0.0
2017-Feb-24 11:33N 29°33' W 090°42'0 0.0
2017-Feb-24 10:33N 29°33' W 090°42'0 0.0
2017-Feb-24 09:33N 29°33' W 090°42'0 0.0
2017-Feb-24 08:33N 29°33' W 090°42'0 0.0
2017-Feb-24 07:33N 29°33' W 090°42'0 0.0
2017-Feb-24 06:33N 29°33' W 090°42'0 0.0
2017-Feb-24 05:33N 29°33' W 090°42'1 1.4
2017-Feb-24 04:33N 29°34' W 090°43'3 2.8
2017-Feb-24 03:33N 29°36' W 090°41'3 3.3
2017-Feb-24 02:33N 29°35' W 090°38'1 0.9
2017-Feb-24 01:33N 29°35' W 090°37'5 5.4
2017-Feb-24 00:33N 29°35' W 090°43'3 2.7
2017-Feb-23 23:33N 29°33' W 090°42'0 0.3
2017-Feb-23 22:33N 29°33' W 090°42'4 3.5
2017-Feb-23 21:33N 29°36' W 090°41'4 4.3
2017-Feb-23 20:33N 29°35' W 090°36'0 0.0
2017-Feb-23 19:33N 29°35' W 090°36'0 0.0
2017-Feb-23 18:33N 29°35' W 090°36'0 0.0
2017-Feb-23 17:33N 29°35' W 090°36'0 0.0
2017-Feb-23 16:33N 29°35' W 090°36'0 0.0
2017-Feb-23 15:33N 29°35' W 090°36'0 0.0
2017-Feb-23 14:33N 29°35' W 090°36'0 0.0
2017-Feb-23 13:33N 29°35' W 090°36'0 0.0
2017-Feb-23 12:33N 29°35' W 090°36'0 0.0
2017-Feb-23 11:33N 29°35' W 090°36'0 0.0
2017-Feb-23 10:33N 29°35' W 090°36'0 0.0
2017-Feb-23 09:33N 29°35' W 090°36'2 0.3
2017-Feb-23 02:26N 29°35' W 090°38'2 2.2
2017-Feb-23 01:33N 29°36' W 090°40'0 0.0
2017-Feb-23 00:33N 29°36' W 090°40'1 0.8
2017-Feb-22 23:33N 29°36' W 090°39'3 3.1
2017-Feb-22 22:33N 29°35' W 090°36'0 0.0
2017-Feb-22 21:33N 29°35' W 090°36'0 0.0
2017-Feb-22 20:33N 29°35' W 090°36'0 0.0
2017-Feb-22 19:33N 29°35' W 090°36'0 0.0
2017-Feb-22 18:33N 29°35' W 090°36'0 0.0
2017-Feb-22 13:10N 29°35' W 090°36'0 0.1
2017-Feb-22 12:33N 29°35' W 090°36'0 0.1
2017-Feb-22 11:33N 29°35' W 090°36'0 0.0
2017-Feb-22 10:33N 29°35' W 090°36'0 0.0
2017-Feb-22 09:31N 29°35' W 090°36'0 0.0
2017-Feb-22 08:32N 29°35' W 090°36'0 0.0
2017-Feb-22 07:32N 29°35' W 090°36'0 0.0
2017-Feb-22 06:26N 29°35' W 090°36'4 4.7
2017-Feb-22 05:33N 29°34' W 090°32'7 7.0
2017-Feb-22 04:32N 29°33' W 090°23'0 0.0
2017-Feb-22 03:31N 29°34' W 090°23'  
2017-Feb-19 13:32N 29°34' W 090°23'0 0.0
2017-Feb-19 06:24N 29°34' W 090°23'0 0.0
2017-Feb-19 04:30N 29°34' W 090°23'  
2017-Feb-16 02:32N 29°34' W 090°33'5 5.4
2017-Feb-16 01:33N 29°36' W 090°39'3 3.4
2017-Feb-16 00:33N 29°35' W 090°43'1 0.9
2017-Feb-15 23:31N 29°34' W 090°43'0 0.0
2017-Feb-15 22:31N 29°34' W 090°43'0 0.0
2017-Feb-15 21:31N 29°34' W 090°43'0 0.0
2017-Feb-15 20:31N 29°34' W 090°43'1 1.5
2017-Feb-15 19:33N 29°36' W 090°43'4 4.3
2017-Feb-15 18:33N 29°35' W 090°38'2 1.6
2017-Feb-15 17:29N 29°35' W 090°36'0 0.0
2017-Feb-15 16:29N 29°35' W 090°36'0 0.0
2017-Feb-15 15:23N 29°35' W 090°36'0 0.0
2017-Feb-15 14:29N 29°35' W 090°36'0 0.2
2017-Feb-15 13:33N 29°35' W 090°36'0 0.0
2017-Feb-15 04:30N 29°35' W 090°36'0 0.0
2017-Feb-14 21:07N 29°35' W 090°36'0 0.0
2017-Feb-14 20:04N 29°35' W 090°36'2 3.7
2017-Feb-14 19:33N 29°35' W 090°38'4 4.1
2017-Feb-14 18:33N 29°36' W 090°43'  
Track history (hours):
 
Tides and Currents Weather Stations Pressure Air Temp Water Temp Dewpoint Dewpoint Depression Visibility Wind Speed Wind Dir Waves Ship Positions

MiSS Stacie

Owner: Crosby Marine Transportation LLC, Golden Meadow, LA. More information available from US FCC via Universal Licensing System and Coast Guard Vessel Documentation Center.

Last reported at 2017-Feb-24 19:33 UTC. Time now 2017-Feb-24 19:33 UTC.
Position N 29°33' W 090°42'.

Length 20 m; draft 2 m.

Type: Tug. MMSI: 367468640.

Date/timePositionNaut miles runAvg speedWind from/ knotsBaromVisibWave heightAir tempDewpointWater temp
2017-Feb-24 19:33N 29°33' W 090°42'0 0.2
2017-Feb-24 18:33N 29°33' W 090°42'0 0.1
2017-Feb-24 17:33N 29°33' W 090°42'0 0.0
2017-Feb-24 16:33N 29°33' W 090°42'1 1.1
2017-Feb-24 15:33N 29°34' W 090°42'1 1.1
2017-Feb-24 14:33N 29°33' W 090°42'0 0.3
2017-Feb-24 13:33N 29°33' W 090°42'0 0.0
2017-Feb-24 12:33N 29°33' W 090°42'0 0.0
2017-Feb-24 11:33N 29°33' W 090°42'0 0.0
2017-Feb-24 10:33N 29°33' W 090°42'0 0.0
2017-Feb-24 09:33N 29°33' W 090°42'0 0.0
2017-Feb-24 08:33N 29°33' W 090°42'0 0.0
2017-Feb-24 07:33N 29°33' W 090°42'0 0.0
2017-Feb-24 06:33N 29°33' W 090°42'0 0.0
2017-Feb-24 05:33N 29°33' W 090°42'1 1.4
2017-Feb-24 04:33N 29°34' W 090°43'3 2.8
2017-Feb-24 03:33N 29°36' W 090°41'3 3.3
2017-Feb-24 02:33N 29°35' W 090°38'1 0.9
2017-Feb-24 01:33N 29°35' W 090°37'5 5.4
2017-Feb-24 00:33N 29°35' W 090°43'3 2.7
2017-Feb-23 23:33N 29°33' W 090°42'0 0.3
2017-Feb-23 22:33N 29°33' W 090°42'4 3.5
2017-Feb-23 21:33N 29°36' W 090°41'4 4.3
2017-Feb-23 20:33N 29°35' W 090°36'0 0.0
2017-Feb-23 19:33N 29°35' W 090°36'0 0.0
2017-Feb-23 18:33N 29°35' W 090°36'0 0.0
2017-Feb-23 17:33N 29°35' W 090°36'0 0.0
2017-Feb-23 16:33N 29°35' W 090°36'0 0.0
2017-Feb-23 15:33N 29°35' W 090°36'0 0.0
2017-Feb-23 14:33N 29°35' W 090°36'0 0.0
2017-Feb-23 13:33N 29°35' W 090°36'0 0.0
2017-Feb-23 12:33N 29°35' W 090°36'0 0.0
2017-Feb-23 11:33N 29°35' W 090°36'0 0.0
2017-Feb-23 10:33N 29°35' W 090°36'0 0.0
2017-Feb-23 09:33N 29°35' W 090°36'2 0.3
2017-Feb-23 02:26N 29°35' W 090°38'2 2.2
2017-Feb-23 01:33N 29°36' W 090°40'0 0.0
2017-Feb-23 00:33N 29°36' W 090°40'1 0.8
2017-Feb-22 23:33N 29°36' W 090°39'3 3.1
2017-Feb-22 22:33N 29°35' W 090°36'0 0.0
2017-Feb-22 21:33N 29°35' W 090°36'0 0.0
2017-Feb-22 20:33N 29°35' W 090°36'0 0.0
2017-Feb-22 19:33N 29°35' W 090°36'0 0.0
2017-Feb-22 18:33N 29°35' W 090°36'0 0.0
2017-Feb-22 13:10N 29°35' W 090°36'0 0.1
2017-Feb-22 12:33N 29°35' W 090°36'0 0.1
2017-Feb-22 11:33N 29°35' W 090°36'0 0.0
2017-Feb-22 10:33N 29°35' W 090°36'0 0.0
2017-Feb-22 09:31N 29°35' W 090°36'0 0.0
2017-Feb-22 08:32N 29°35' W 090°36'0 0.0
2017-Feb-22 07:32N 29°35' W 090°36'0 0.0
2017-Feb-22 06:26N 29°35' W 090°36'4 4.7
2017-Feb-22 05:33N 29°34' W 090°32'7 7.0
2017-Feb-22 04:32N 29°33' W 090°23'0 0.0
2017-Feb-22 03:31N 29°34' W 090°23'  
2017-Feb-19 13:32N 29°34' W 090°23'0 0.0
2017-Feb-19 06:24N 29°34' W 090°23'0 0.0
2017-Feb-19 04:30N 29°34' W 090°23'  
2017-Feb-16 02:32N 29°34' W 090°33'5 5.4
2017-Feb-16 01:33N 29°36' W 090°39'3 3.4
2017-Feb-16 00:33N 29°35' W 090°43'1 0.9
2017-Feb-15 23:31N 29°34' W 090°43'0 0.0
2017-Feb-15 22:31N 29°34' W 090°43'0 0.0
2017-Feb-15 21:31N 29°34' W 090°43'0 0.0
2017-Feb-15 20:31N 29°34' W 090°43'1 1.5
2017-Feb-15 19:33N 29°36' W 090°43'4 4.3
2017-Feb-15 18:33N 29°35' W 090°38'2 1.6
2017-Feb-15 17:29N 29°35' W 090°36'0 0.0
2017-Feb-15 16:29N 29°35' W 090°36'0 0.0
2017-Feb-15 15:23N 29°35' W 090°36'0 0.0
2017-Feb-15 14:29N 29°35' W 090°36'0 0.2
2017-Feb-15 13:33N 29°35' W 090°36'0 0.0
2017-Feb-15 04:30N 29°35' W 090°36'0 0.0
2017-Feb-14 21:07N 29°35' W 090°36'0 0.0
2017-Feb-14 20:04N 29°35' W 090°36'2 3.7
2017-Feb-14 19:33N 29°35' W 090°38'4 4.1
2017-Feb-14 18:33N 29°36' W 090°43'  

Dump ship's entire track history